sensor_id;sensor_type;location;lat;lon;timestamp;temperature;humidity
68215;DHT22;55036;52.138;5.236;2023-06-24T00:00:00;20.10;66.30
68215;DHT22;55036;52.138;5.236;2023-06-24T00:02:27;20.10;66.70
68215;DHT22;55036;52.138;5.236;2023-06-24T00:04:54;20.10;66.40
68215;DHT22;55036;52.138;5.236;2023-06-24T00:07:26;20.10;66.50
68215;DHT22;55036;52.138;5.236;2023-06-24T00:09:53;20.10;66.50
68215;DHT22;55036;52.138;5.236;2023-06-24T00:12:20;20.10;66.50
68215;DHT22;55036;52.138;5.236;2023-06-24T00:14:48;20.00;66.60
68215;DHT22;55036;52.138;5.236;2023-06-24T00:17:14;20.00;66.60
68215;DHT22;55036;52.138;5.236;2023-06-24T00:19:43;20.00;66.60
68215;DHT22;55036;52.138;5.236;2023-06-24T00:22:12;19.90;66.70
68215;DHT22;55036;52.138;5.236;2023-06-24T00:24:41;19.80;66.80
68215;DHT22;55036;52.138;5.236;2023-06-24T00:27:09;19.80;67.10
68215;DHT22;55036;52.138;5.236;2023-06-24T00:29:36;19.80;67.30
68215;DHT22;55036;52.138;5.236;2023-06-24T00:32:03;19.70;67.30
68215;DHT22;55036;52.138;5.236;2023-06-24T00:34:29;19.70;67.50
68215;DHT22;55036;52.138;5.236;2023-06-24T00:36:56;19.70;67.60
68215;DHT22;55036;52.138;5.236;2023-06-24T00:39:23;19.60;67.60
68215;DHT22;55036;52.138;5.236;2023-06-24T00:41:50;19.60;67.80
68215;DHT22;55036;52.138;5.236;2023-06-24T01:22:37;19.10;69.50
68215;DHT22;55036;52.138;5.236;2023-06-24T01:31:31;19.10;70.10
68215;DHT22;55036;52.138;5.236;2023-06-24T01:37:11;19.00;70.00
68215;DHT22;55036;52.138;5.236;2023-06-24T01:40:04;18.90;70.20
68215;DHT22;55036;52.138;5.236;2023-06-24T01:42:35;18.90;70.30
68215;DHT22;55036;52.138;5.236;2023-06-24T01:45:06;18.80;70.40
68215;DHT22;55036;52.138;5.236;2023-06-24T01:47:34;18.80;70.50
68215;DHT22;55036;52.138;5.236;2023-06-24T01:50:03;18.80;70.70
68215;DHT22;55036;52.138;5.236;2023-06-24T01:52:30;18.80;70.60
68215;DHT22;55036;52.138;5.236;2023-06-24T01:54:59;18.70;70.60
68215;DHT22;55036;52.138;5.236;2023-06-24T01:57:27;18.80;71.00
68215;DHT22;55036;52.138;5.236;2023-06-24T01:59:55;18.80;70.90
68215;DHT22;55036;52.138;5.236;2023-06-24T02:02:25;18.70;70.80
68215;DHT22;55036;52.138;5.236;2023-06-24T02:04:54;18.70;70.80
68215;DHT22;55036;52.138;5.236;2023-06-24T02:07:21;18.70;70.90
68215;DHT22;55036;52.138;5.236;2023-06-24T02:09:50;18.60;70.90
68215;DHT22;55036;52.138;5.236;2023-06-24T02:12:17;18.60;71.90
68215;DHT22;55036;52.138;5.236;2023-06-24T02:14:45;18.60;71.20
68215;DHT22;55036;52.138;5.236;2023-06-24T02:17:13;18.60;71.20
68215;DHT22;55036;52.138;5.236;2023-06-24T02:19:41;18.60;71.30
68215;DHT22;55036;52.138;5.236;2023-06-24T02:22:09;18.50;71.20
68215;DHT22;55036;52.138;5.236;2023-06-24T02:24:37;18.50;71.50
68215;DHT22;55036;52.138;5.236;2023-06-24T02:27:06;18.50;71.50
68215;DHT22;55036;52.138;5.236;2023-06-24T02:29:34;18.50;71.70
68215;DHT22;55036;52.138;5.236;2023-06-24T02:32:02;18.40;71.60
68215;DHT22;55036;52.138;5.236;2023-06-24T02:34:29;18.40;71.60
68215;DHT22;55036;52.138;5.236;2023-06-24T02:36:56;18.40;71.60
68215;DHT22;55036;52.138;5.236;2023-06-24T02:39:23;18.40;71.70
68215;DHT22;55036;52.138;5.236;2023-06-24T02:41:50;18.30;71.90
68215;DHT22;55036;52.138;5.236;2023-06-24T02:44:17;18.30;72.10
68215;DHT22;55036;52.138;5.236;2023-06-24T02:46:45;18.30;72.20
68215;DHT22;55036;52.138;5.236;2023-06-24T02:49:15;18.30;72.10
68215;DHT22;55036;52.138;5.236;2023-06-24T02:51:42;18.20;72.30
68215;DHT22;55036;52.138;5.236;2023-06-24T02:54:09;18.20;72.30
68215;DHT22;55036;52.138;5.236;2023-06-24T02:56:38;18.20;72.40
68215;DHT22;55036;52.138;5.236;2023-06-24T02:59:10;18.20;72.50
68215;DHT22;55036;52.138;5.236;2023-06-24T03:01:38;18.10;72.50
68215;DHT22;55036;52.138;5.236;2023-06-24T03:04:06;18.00;72.60
68215;DHT22;55036;52.138;5.236;2023-06-24T03:06:34;17.90;72.90
68215;DHT22;55036;52.138;5.236;2023-06-24T03:09:03;17.90;73.20
68215;DHT22;55036;52.138;5.236;2023-06-24T03:11:30;17.90;73.40
68215;DHT22;55036;52.138;5.236;2023-06-24T03:13:57;17.90;73.50
68215;DHT22;55036;52.138;5.236;2023-06-24T03:16:24;17.90;73.40
68215;DHT22;55036;52.138;5.236;2023-06-24T03:18:51;17.90;73.50
68215;DHT22;55036;52.138;5.236;2023-06-24T03:21:18;17.90;73.50
68215;DHT22;55036;52.138;5.236;2023-06-24T03:23:44;17.90;73.30
68215;DHT22;55036;52.138;5.236;2023-06-24T03:26:11;17.90;73.40
68215;DHT22;55036;52.138;5.236;2023-06-24T03:28:38;17.90;73.60
68215;DHT22;55036;52.138;5.236;2023-06-24T03:31:05;17.90;73.50
68215;DHT22;55036;52.138;5.236;2023-06-24T03:33:32;17.90;73.50
68215;DHT22;55036;52.138;5.236;2023-06-24T03:35:58;17.80;73.40
68215;DHT22;55036;52.138;5.236;2023-06-24T03:38:25;17.80;73.50
68215;DHT22;55036;52.138;5.236;2023-06-24T03:40:52;17.80;73.50
68215;DHT22;55036;52.138;5.236;2023-06-24T03:43:19;17.80;73.70
68215;DHT22;55036;52.138;5.236;2023-06-24T03:45:45;17.80;73.80
68215;DHT22;55036;52.138;5.236;2023-06-24T03:48:12;17.80;73.70
68215;DHT22;55036;52.138;5.236;2023-06-24T03:50:39;17.80;73.90
68215;DHT22;55036;52.138;5.236;2023-06-24T03:53:06;17.80;73.90
68215;DHT22;55036;52.138;5.236;2023-06-24T03:55:32;17.80;73.90
68215;DHT22;55036;52.138;5.236;2023-06-24T03:58:00;17.80;73.80
68215;DHT22;55036;52.138;5.236;2023-06-24T04:00:26;17.80;73.90
68215;DHT22;55036;52.138;5.236;2023-06-24T04:02:53;17.80;74.00
68215;DHT22;55036;52.138;5.236;2023-06-24T04:05:21;17.80;74.10
68215;DHT22;55036;52.138;5.236;2023-06-24T04:07:51;17.80;75.00
68215;DHT22;55036;52.138;5.236;2023-06-24T04:10:19;17.80;73.90
68215;DHT22;55036;52.138;5.236;2023-06-24T04:12:46;17.80;74.00
68215;DHT22;55036;52.138;5.236;2023-06-24T04:15:12;17.80;74.00
68215;DHT22;55036;52.138;5.236;2023-06-24T04:17:39;17.80;74.00
68215;DHT22;55036;52.138;5.236;2023-06-24T04:20:06;17.80;74.20
68215;DHT22;55036;52.138;5.236;2023-06-24T04:22:39;17.80;74.30
68215;DHT22;55036;52.138;5.236;2023-06-24T04:25:07;17.80;74.40
68215;DHT22;55036;52.138;5.236;2023-06-24T04:27:35;17.80;74.50
68215;DHT22;55036;52.138;5.236;2023-06-24T04:30:03;17.80;74.60
68215;DHT22;55036;52.138;5.236;2023-06-24T04:32:30;17.80;74.70
68215;DHT22;55036;52.138;5.236;2023-06-24T04:34:59;17.90;75.20
68215;DHT22;55036;52.138;5.236;2023-06-24T04:37:30;18.10;75.60
68215;DHT22;55036;52.138;5.236;2023-06-24T04:39:57;18.40;75.60
68215;DHT22;55036;52.138;5.236;2023-06-24T04:42:24;18.60;75.10
68215;DHT22;55036;52.138;5.236;2023-06-24T04:44:51;18.80;74.80
68215;DHT22;55036;52.138;5.236;2023-06-24T04:47:18;18.90;74.30
68215;DHT22;55036;52.138;5.236;2023-06-24T04:49:45;19.10;73.90
68215;DHT22;55036;52.138;5.236;2023-06-24T04:52:12;19.20;73.40
68215;DHT22;55036;52.138;5.236;2023-06-24T04:54:39;19.20;72.70
68215;DHT22;55036;52.138;5.236;2023-06-24T04:57:09;19.10;72.40
68215;DHT22;55036;52.138;5.236;2023-06-24T04:59:36;19.10;72.50
68215;DHT22;55036;52.138;5.236;2023-06-24T05:02:04;19.00;72.60
68215;DHT22;55036;52.138;5.236;2023-06-24T05:04:31;19.00;72.70
68215;DHT22;55036;52.138;5.236;2023-06-24T05:06:58;19.00;73.20
68215;DHT22;55036;52.138;5.236;2023-06-24T05:09:25;19.10;73.70
68215;DHT22;55036;52.138;5.236;2023-06-24T05:11:51;19.40;73.80
68215;DHT22;55036;52.138;5.236;2023-06-24T05:14:18;19.60;73.60
68215;DHT22;55036;52.138;5.236;2023-06-24T05:16:45;19.90;73.40
68215;DHT22;55036;52.138;5.236;2023-06-24T05:19:12;20.10;73.10
68215;DHT22;55036;52.138;5.236;2023-06-24T05:21:38;20.40;72.70
68215;DHT22;55036;52.138;5.236;2023-06-24T05:24:05;20.70;72.20
68215;DHT22;55036;52.138;5.236;2023-06-24T05:26:32;20.90;71.60
68215;DHT22;55036;52.138;5.236;2023-06-24T05:28:59;21.20;71.20
68215;DHT22;55036;52.138;5.236;2023-06-24T05:31:25;21.40;70.70
68215;DHT22;55036;52.138;5.236;2023-06-24T05:33:52;21.70;70.00
68215;DHT22;55036;52.138;5.236;2023-06-24T05:36:19;21.80;68.80
68215;DHT22;55036;52.138;5.236;2023-06-24T05:38:46;22.10;67.80
68215;DHT22;55036;52.138;5.236;2023-06-24T05:41:15;22.20;68.00
68215;DHT22;55036;52.138;5.236;2023-06-24T05:43:44;22.40;67.40
68215;DHT22;55036;52.138;5.236;2023-06-24T05:46:11;22.50;66.70
68215;DHT22;55036;52.138;5.236;2023-06-24T05:48:38;22.60;65.70
68215;DHT22;55036;52.138;5.236;2023-06-24T05:51:05;22.70;65.50
68215;DHT22;55036;52.138;5.236;2023-06-24T05:53:32;22.80;65.00
68215;DHT22;55036;52.138;5.236;2023-06-24T05:55:58;23.00;64.80
68215;DHT22;55036;52.138;5.236;2023-06-24T05:58:25;23.10;63.70
68215;DHT22;55036;52.138;5.236;2023-06-24T06:00:52;23.20;63.40
68215;DHT22;55036;52.138;5.236;2023-06-24T06:03:19;23.40;63.30
68215;DHT22;55036;52.138;5.236;2023-06-24T06:05:45;23.50;61.50
68215;DHT22;55036;52.138;5.236;2023-06-24T06:08:12;23.50;62.20
68215;DHT22;55036;52.138;5.236;2023-06-24T06:10:39;23.60;61.60
68215;DHT22;55036;52.138;5.236;2023-06-24T06:13:06;23.60;61.40
68215;DHT22;55036;52.138;5.236;2023-06-24T06:15:32;23.70;61.10
68215;DHT22;55036;52.138;5.236;2023-06-24T06:18:00;23.80;61.10
68215;DHT22;55036;52.138;5.236;2023-06-24T06:20:27;23.90;60.40
68215;DHT22;55036;52.138;5.236;2023-06-24T06:22:53;24.00;59.60
68215;DHT22;55036;52.138;5.236;2023-06-24T06:25:20;24.10;59.70
68215;DHT22;55036;52.138;5.236;2023-06-24T06:27:47;24.20;58.60
68215;DHT22;55036;52.138;5.236;2023-06-24T06:30:14;24.20;58.50
68215;DHT22;55036;52.138;5.236;2023-06-24T06:32:41;24.40;58.90
68215;DHT22;55036;52.138;5.236;2023-06-24T06:35:07;24.50;58.30
68215;DHT22;55036;52.138;5.236;2023-06-24T06:37:34;24.60;57.80
68215;DHT22;55036;52.138;5.236;2023-06-24T06:40:02;24.60;57.30
68215;DHT22;55036;52.138;5.236;2023-06-24T06:42:29;24.60;57.10
68215;DHT22;55036;52.138;5.236;2023-06-24T06:44:56;24.70;56.60
68215;DHT22;55036;52.138;5.236;2023-06-24T06:47:23;24.90;56.40
68215;DHT22;55036;52.138;5.236;2023-06-24T06:49:50;24.90;55.70
68215;DHT22;55036;52.138;5.236;2023-06-24T06:52:16;25.00;55.80
68215;DHT22;55036;52.138;5.236;2023-06-24T06:54:43;25.00;54.90
68215;DHT22;55036;52.138;5.236;2023-06-24T06:57:10;25.10;55.00
68215;DHT22;55036;52.138;5.236;2023-06-24T06:59:37;25.20;54.30
68215;DHT22;55036;52.138;5.236;2023-06-24T07:02:21;25.30;53.80
68215;DHT22;55036;52.138;5.236;2023-06-24T07:04:48;25.30;52.40
68215;DHT22;55036;52.138;5.236;2023-06-24T07:07:14;25.30;53.00
68215;DHT22;55036;52.138;5.236;2023-06-24T07:09:41;25.40;53.30
68215;DHT22;55036;52.138;5.236;2023-06-24T07:12:08;25.40;52.80
68215;DHT22;55036;52.138;5.236;2023-06-24T07:14:35;25.50;52.60
68215;DHT22;55036;52.138;5.236;2023-06-24T07:17:02;25.60;51.80
68215;DHT22;55036;52.138;5.236;2023-06-24T07:19:29;25.60;51.60
68215;DHT22;55036;52.138;5.236;2023-06-24T07:21:56;25.50;51.60
68215;DHT22;55036;52.138;5.236;2023-06-24T07:24:31;25.70;51.60
68215;DHT22;55036;52.138;5.236;2023-06-24T07:26:58;25.80;51.80
68215;DHT22;55036;52.138;5.236;2023-06-24T07:29:25;25.90;51.20
68215;DHT22;55036;52.138;5.236;2023-06-24T07:31:52;26.00;50.90
68215;DHT22;55036;52.138;5.236;2023-06-24T07:34:18;26.00;51.00
68215;DHT22;55036;52.138;5.236;2023-06-24T07:36:45;26.10;51.10
68215;DHT22;55036;52.138;5.236;2023-06-24T07:39:12;26.10;50.60
68215;DHT22;55036;52.138;5.236;2023-06-24T07:41:39;26.20;50.60
68215;DHT22;55036;52.138;5.236;2023-06-24T07:44:06;26.30;50.40
68215;DHT22;55036;52.138;5.236;2023-06-24T07:46:33;26.30;49.90
68215;DHT22;55036;52.138;5.236;2023-06-24T07:49:01;26.40;49.80
68215;DHT22;55036;52.138;5.236;2023-06-24T07:51:27;26.40;50.90
68215;DHT22;55036;52.138;5.236;2023-06-24T07:53:54;26.40;49.90
68215;DHT22;55036;52.138;5.236;2023-06-24T07:56:21;26.50;51.00
68215;DHT22;55036;52.138;5.236;2023-06-24T07:58:48;26.50;49.30
68215;DHT22;55036;52.138;5.236;2023-06-24T08:01:14;26.50;49.40
68215;DHT22;55036;52.138;5.236;2023-06-24T08:03:41;26.50;49.40
68215;DHT22;55036;52.138;5.236;2023-06-24T08:06:08;26.60;49.70
68215;DHT22;55036;52.138;5.236;2023-06-24T08:08:35;26.70;49.80
68215;DHT22;55036;52.138;5.236;2023-06-24T08:11:03;26.80;48.80
68215;DHT22;55036;52.138;5.236;2023-06-24T08:13:29;26.90;49.10
68215;DHT22;55036;52.138;5.236;2023-06-24T08:15:56;27.10;48.10
68215;DHT22;55036;52.138;5.236;2023-06-24T08:18:23;27.00;47.60
68215;DHT22;55036;52.138;5.236;2023-06-24T08:20:50;27.10;48.20
68215;DHT22;55036;52.138;5.236;2023-06-24T08:23:17;27.20;48.20
68215;DHT22;55036;52.138;5.236;2023-06-24T08:25:44;27.20;47.00
68215;DHT22;55036;52.138;5.236;2023-06-24T08:28:10;27.10;46.90
68215;DHT22;55036;52.138;5.236;2023-06-24T08:30:37;27.10;46.20
68215;DHT22;55036;52.138;5.236;2023-06-24T08:33:04;27.10;46.80
68215;DHT22;55036;52.138;5.236;2023-06-24T08:35:31;27.10;46.20
68215;DHT22;55036;52.138;5.236;2023-06-24T08:37:58;27.10;47.30
68215;DHT22;55036;52.138;5.236;2023-06-24T08:40:24;27.30;46.80
68215;DHT22;55036;52.138;5.236;2023-06-24T08:42:51;27.30;46.60
68215;DHT22;55036;52.138;5.236;2023-06-24T08:45:18;27.40;46.70
68215;DHT22;55036;52.138;5.236;2023-06-24T08:47:47;27.50;46.90
68215;DHT22;55036;52.138;5.236;2023-06-24T08:50:15;27.50;46.70
68215;DHT22;55036;52.138;5.236;2023-06-24T08:52:45;27.60;46.70
68215;DHT22;55036;52.138;5.236;2023-06-24T08:55:17;27.70;45.70
68215;DHT22;55036;52.138;5.236;2023-06-24T08:57:48;27.60;46.50
68215;DHT22;55036;52.138;5.236;2023-06-24T09:00:15;27.80;45.80
68215;DHT22;55036;52.138;5.236;2023-06-24T09:02:42;27.80;45.40
68215;DHT22;55036;52.138;5.236;2023-06-24T09:05:09;27.90;45.30
68215;DHT22;55036;52.138;5.236;2023-06-24T09:07:36;28.00;45.40
68215;DHT22;55036;52.138;5.236;2023-06-24T09:10:03;28.00;45.00
68215;DHT22;55036;52.138;5.236;2023-06-24T09:12:34;28.00;44.50
68215;DHT22;55036;52.138;5.236;2023-06-24T09:15:02;27.90;44.30
68215;DHT22;55036;52.138;5.236;2023-06-24T09:17:29;27.80;45.10
68215;DHT22;55036;52.138;5.236;2023-06-24T09:20:06;27.90;44.90
68215;DHT22;55036;52.138;5.236;2023-06-24T09:22:33;27.90;45.60
68215;DHT22;55036;52.138;5.236;2023-06-24T09:25:01;28.00;45.10
68215;DHT22;55036;52.138;5.236;2023-06-24T09:27:31;28.10;44.50
68215;DHT22;55036;52.138;5.236;2023-06-24T09:29:58;28.10;45.20
68215;DHT22;55036;52.138;5.236;2023-06-24T09:32:31;28.20;44.90
68215;DHT22;55036;52.138;5.236;2023-06-24T09:34:58;28.20;44.60
68215;DHT22;55036;52.138;5.236;2023-06-24T09:37:29;28.20;44.90
68215;DHT22;55036;52.138;5.236;2023-06-24T09:39:59;28.30;44.50
68215;DHT22;55036;52.138;5.236;2023-06-24T09:42:26;28.30;44.70
68215;DHT22;55036;52.138;5.236;2023-06-24T09:44:55;28.30;44.70
68215;DHT22;55036;52.138;5.236;2023-06-24T09:47:23;28.40;45.20
68215;DHT22;55036;52.138;5.236;2023-06-24T09:49:54;28.50;45.00
68215;DHT22;55036;52.138;5.236;2023-06-24T09:52:21;28.60;46.10
68215;DHT22;55036;52.138;5.236;2023-06-24T09:54:51;28.70;44.70
68215;DHT22;55036;52.138;5.236;2023-06-24T09:57:27;28.60;45.10
68215;DHT22;55036;52.138;5.236;2023-06-24T09:59:55;28.70;45.00
68215;DHT22;55036;52.138;5.236;2023-06-24T10:02:22;28.80;44.70
68215;DHT22;55036;52.138;5.236;2023-06-24T10:04:51;28.80;44.40
68215;DHT22;55036;52.138;5.236;2023-06-24T10:07:18;28.80;44.60
68215;DHT22;55036;52.138;5.236;2023-06-24T10:09:45;28.80;44.40
68215;DHT22;55036;52.138;5.236;2023-06-24T10:12:12;28.80;43.20
68215;DHT22;55036;52.138;5.236;2023-06-24T10:14:39;28.70;43.80
68215;DHT22;55036;52.138;5.236;2023-06-24T10:17:06;28.70;44.30
68215;DHT22;55036;52.138;5.236;2023-06-24T10:19:40;28.90;44.80
68215;DHT22;55036;52.138;5.236;2023-06-24T10:22:09;29.00;44.30
68215;DHT22;55036;52.138;5.236;2023-06-24T10:24:38;29.10;44.30
68215;DHT22;55036;52.138;5.236;2023-06-24T10:27:08;29.10;43.50
68215;DHT22;55036;52.138;5.236;2023-06-24T10:29:39;29.00;42.80
68215;DHT22;55036;52.138;5.236;2023-06-24T10:32:10;29.00;43.10
68215;DHT22;55036;52.138;5.236;2023-06-24T10:37:08;28.90;44.00
68215;DHT22;55036;52.138;5.236;2023-06-24T10:39:39;28.90;43.60
68215;DHT22;55036;52.138;5.236;2023-06-24T10:44:58;29.10;43.90
68215;DHT22;55036;52.138;5.236;2023-06-24T10:47:27;29.10;43.50
68215;DHT22;55036;52.138;5.236;2023-06-24T10:49:54;29.30;43.90
68215;DHT22;55036;52.138;5.236;2023-06-24T10:52:22;29.30;42.80
68215;DHT22;55036;52.138;5.236;2023-06-24T10:54:50;29.30;42.50
68215;DHT22;55036;52.138;5.236;2023-06-24T10:57:24;29.40;42.80
68215;DHT22;55036;52.138;5.236;2023-06-24T10:59:56;29.40;42.70
68215;DHT22;55036;52.138;5.236;2023-06-24T11:02:24;29.40;42.60
68215;DHT22;55036;52.138;5.236;2023-06-24T11:04:53;29.50;43.20
68215;DHT22;55036;52.138;5.236;2023-06-24T11:07:27;29.60;42.70
68215;DHT22;55036;52.138;5.236;2023-06-24T11:10:00;29.60;42.50
68215;DHT22;55036;52.138;5.236;2023-06-24T11:12:30;29.60;42.70
68215;DHT22;55036;52.138;5.236;2023-06-24T11:14:58;29.70;42.60
68215;DHT22;55036;52.138;5.236;2023-06-24T11:17:25;29.80;42.60
68215;DHT22;55036;52.138;5.236;2023-06-24T11:19:57;29.90;42.60
68215;DHT22;55036;52.138;5.236;2023-06-24T11:22:25;30.00;42.60
68215;DHT22;55036;52.138;5.236;2023-06-24T11:24:53;30.20;42.70
68215;DHT22;55036;52.138;5.236;2023-06-24T11:27:24;30.40;42.30
68215;DHT22;55036;52.138;5.236;2023-06-24T11:29:53;30.50;41.70
68215;DHT22;55036;52.138;5.236;2023-06-24T11:32:20;30.40;40.80
68215;DHT22;55036;52.138;5.236;2023-06-24T11:34:47;30.50;42.40
68215;DHT22;55036;52.138;5.236;2023-06-24T11:37:17;30.70;41.00
68215;DHT22;55036;52.138;5.236;2023-06-24T11:39:44;30.80;41.00
68215;DHT22;55036;52.138;5.236;2023-06-24T11:42:13;30.90;41.00
68215;DHT22;55036;52.138;5.236;2023-06-24T11:44:43;31.10;41.10
68215;DHT22;55036;52.138;5.236;2023-06-24T11:47:10;31.10;41.00
68215;DHT22;55036;52.138;5.236;2023-06-24T11:49:51;31.20;40.50
68215;DHT22;55036;52.138;5.236;2023-06-24T11:52:42;31.00;40.10
68215;DHT22;55036;52.138;5.236;2023-06-24T11:57:58;30.10;40.20
68215;DHT22;55036;52.138;5.236;2023-06-24T12:00:30;29.80;40.50
68215;DHT22;55036;52.138;5.236;2023-06-24T12:02:59;29.80;41.10
68215;DHT22;55036;52.138;5.236;2023-06-24T12:05:34;30.00;41.20
68215;DHT22;55036;52.138;5.236;2023-06-24T12:08:06;30.20;40.30
68215;DHT22;55036;52.138;5.236;2023-06-24T12:10:34;30.00;39.60
68215;DHT22;55036;52.138;5.236;2023-06-24T12:13:03;29.60;39.80
68215;DHT22;55036;52.138;5.236;2023-06-24T12:15:30;29.30;40.20
68215;DHT22;55036;52.138;5.236;2023-06-24T12:17:57;29.20;40.70
68215;DHT22;55036;52.138;5.236;2023-06-24T12:20:25;29.10;40.70
68215;DHT22;55036;52.138;5.236;2023-06-24T12:23:03;29.00;41.00
68215;DHT22;55036;52.138;5.236;2023-06-24T12:25:33;29.00;41.30
68215;DHT22;55036;52.138;5.236;2023-06-24T12:27:59;28.80;41.30
68215;DHT22;55036;52.138;5.236;2023-06-24T12:30:27;28.70;41.50
68215;DHT22;55036;52.138;5.236;2023-06-24T12:32:53;28.60;41.50
68215;DHT22;55036;52.138;5.236;2023-06-24T12:35:22;28.30;41.90
68215;DHT22;55036;52.138;5.236;2023-06-24T12:37:51;28.40;42.50
68215;DHT22;55036;52.138;5.236;2023-06-24T12:40:19;28.80;42.40
68215;DHT22;55036;52.138;5.236;2023-06-24T12:42:45;28.90;41.00
68215;DHT22;55036;52.138;5.236;2023-06-24T12:45:12;29.00;42.30
68215;DHT22;55036;52.138;5.236;2023-06-24T12:47:39;29.30;42.40
68215;DHT22;55036;52.138;5.236;2023-06-24T12:50:07;29.70;42.00
68215;DHT22;55036;52.138;5.236;2023-06-24T12:52:37;30.00;40.70
68215;DHT22;55036;52.138;5.236;2023-06-24T12:55:06;30.10;41.10
68215;DHT22;55036;52.138;5.236;2023-06-24T12:57:35;30.20;40.80
68215;DHT22;55036;52.138;5.236;2023-06-24T13:00:02;30.30;40.20
68215;DHT22;55036;52.138;5.236;2023-06-24T13:02:32;30.30;40.50
68215;DHT22;55036;52.138;5.236;2023-06-24T13:04:59;30.20;40.30
68215;DHT22;55036;52.138;5.236;2023-06-24T13:07:25;30.30;40.40
68215;DHT22;55036;52.138;5.236;2023-06-24T13:09:52;30.50;39.90
68215;DHT22;55036;52.138;5.236;2023-06-24T13:12:20;30.40;39.20
68215;DHT22;55036;52.138;5.236;2023-06-24T13:14:47;30.40;39.70
68215;DHT22;55036;52.138;5.236;2023-06-24T13:17:13;30.30;39.40
68215;DHT22;55036;52.138;5.236;2023-06-24T13:19:40;30.10;39.40
68215;DHT22;55036;52.138;5.236;2023-06-24T13:22:07;29.90;39.60
68215;DHT22;55036;52.138;5.236;2023-06-24T13:24:34;30.10;40.20
68215;DHT22;55036;52.138;5.236;2023-06-24T13:27:00;30.30;39.70
68215;DHT22;55036;52.138;5.236;2023-06-24T13:29:27;30.60;39.40
68215;DHT22;55036;52.138;5.236;2023-06-24T13:31:54;30.70;39.00
68215;DHT22;55036;52.138;5.236;2023-06-24T13:34:21;30.40;38.80
68215;DHT22;55036;52.138;5.236;2023-06-24T13:36:47;30.30;39.60
68215;DHT22;55036;52.138;5.236;2023-06-24T13:39:14;30.50;39.60
68215;DHT22;55036;52.138;5.236;2023-06-24T13:41:46;30.70;39.50
68215;DHT22;55036;52.138;5.236;2023-06-24T13:44:13;30.90;38.80
68215;DHT22;55036;52.138;5.236;2023-06-24T13:46:40;30.80;38.50
68215;DHT22;55036;52.138;5.236;2023-06-24T13:49:07;30.80;38.20
68215;DHT22;55036;52.138;5.236;2023-06-24T13:51:34;30.80;38.40
68215;DHT22;55036;52.138;5.236;2023-06-24T13:54:01;30.70;38.70
68215;DHT22;55036;52.138;5.236;2023-06-24T13:56:28;30.60;38.50
68215;DHT22;55036;52.138;5.236;2023-06-24T13:58:56;30.40;38.80
68215;DHT22;55036;52.138;5.236;2023-06-24T14:01:23;30.60;39.00
68215;DHT22;55036;52.138;5.236;2023-06-24T14:03:50;30.60;38.20
68215;DHT22;55036;52.138;5.236;2023-06-24T14:06:19;30.50;38.60
68215;DHT22;55036;52.138;5.236;2023-06-24T14:08:46;30.30;39.00
68215;DHT22;55036;52.138;5.236;2023-06-24T14:11:13;30.20;39.40
68215;DHT22;55036;52.138;5.236;2023-06-24T14:13:41;30.40;40.00
68215;DHT22;55036;52.138;5.236;2023-06-24T14:16:08;30.60;39.70
68215;DHT22;55036;52.138;5.236;2023-06-24T14:18:35;30.90;39.60
68215;DHT22;55036;52.138;5.236;2023-06-24T14:21:03;31.20;38.50
68215;DHT22;55036;52.138;5.236;2023-06-24T14:23:31;31.30;38.30
68215;DHT22;55036;52.138;5.236;2023-06-24T14:25:59;31.40;38.10
68215;DHT22;55036;52.138;5.236;2023-06-24T14:28:26;31.30;37.80
68215;DHT22;55036;52.138;5.236;2023-06-24T14:30:53;31.30;38.20
68215;DHT22;55036;52.138;5.236;2023-06-24T14:33:20;31.30;38.10
68215;DHT22;55036;52.138;5.236;2023-06-24T14:35:46;31.30;37.60
68215;DHT22;55036;52.138;5.236;2023-06-24T14:38:13;31.10;37.80
68215;DHT22;55036;52.138;5.236;2023-06-24T14:40:40;31.10;37.70
68215;DHT22;55036;52.138;5.236;2023-06-24T14:43:07;31.20;37.10
68215;DHT22;55036;52.138;5.236;2023-06-24T14:45:33;31.10;37.60
68215;DHT22;55036;52.138;5.236;2023-06-24T14:48:00;31.20;37.30
68215;DHT22;55036;52.138;5.236;2023-06-24T14:50:27;31.30;37.30
68215;DHT22;55036;52.138;5.236;2023-06-24T14:52:54;31.30;37.30
68215;DHT22;55036;52.138;5.236;2023-06-24T14:55:20;31.40;37.40
68215;DHT22;55036;52.138;5.236;2023-06-24T14:57:47;31.50;37.10
68215;DHT22;55036;52.138;5.236;2023-06-24T15:00:14;31.40;37.10
68215;DHT22;55036;52.138;5.236;2023-06-24T15:02:41;31.40;37.10
68215;DHT22;55036;52.138;5.236;2023-06-24T15:05:08;31.50;37.10
68215;DHT22;55036;52.138;5.236;2023-06-24T15:07:35;31.20;36.40
68215;DHT22;55036;52.138;5.236;2023-06-24T15:10:05;31.30;36.70
68215;DHT22;55036;52.138;5.236;2023-06-24T15:12:32;31.20;36.90
68215;DHT22;55036;52.138;5.236;2023-06-24T15:15:00;31.00;36.80
68215;DHT22;55036;52.138;5.236;2023-06-24T15:17:27;31.10;37.30
68215;DHT22;55036;52.138;5.236;2023-06-24T15:19:56;31.10;37.40
68215;DHT22;55036;52.138;5.236;2023-06-24T15:22:23;31.10;37.10
68215;DHT22;55036;52.138;5.236;2023-06-24T15:24:50;31.10;37.20
68215;DHT22;55036;52.138;5.236;2023-06-24T15:27:16;31.10;37.60
68215;DHT22;55036;52.138;5.236;2023-06-24T15:29:43;31.10;38.00
68215;DHT22;55036;52.138;5.236;2023-06-24T15:32:11;31.20;37.50
68215;DHT22;55036;52.138;5.236;2023-06-24T15:34:38;31.20;37.10
68215;DHT22;55036;52.138;5.236;2023-06-24T15:37:05;31.20;36.80
68215;DHT22;55036;52.138;5.236;2023-06-24T15:39:32;31.20;36.80
68215;DHT22;55036;52.138;5.236;2023-06-24T15:41:59;31.20;36.80
68215;DHT22;55036;52.138;5.236;2023-06-24T15:44:25;31.20;37.40
68215;DHT22;55036;52.138;5.236;2023-06-24T15:46:52;31.30;37.30
68215;DHT22;55036;52.138;5.236;2023-06-24T15:49:19;31.10;37.30
68215;DHT22;55036;52.138;5.236;2023-06-24T15:51:46;31.10;36.80
68215;DHT22;55036;52.138;5.236;2023-06-24T15:54:12;31.10;36.80
68215;DHT22;55036;52.138;5.236;2023-06-24T15:56:39;31.10;37.10
68215;DHT22;55036;52.138;5.236;2023-06-24T15:59:06;31.00;37.20
68215;DHT22;55036;52.138;5.236;2023-06-24T16:01:33;31.00;37.20
68215;DHT22;55036;52.138;5.236;2023-06-24T16:03:59;31.00;37.50
68215;DHT22;55036;52.138;5.236;2023-06-24T16:06:26;30.90;37.20
68215;DHT22;55036;52.138;5.236;2023-06-24T16:08:53;30.80;37.00
68215;DHT22;55036;52.138;5.236;2023-06-24T16:11:20;30.80;36.80
68215;DHT22;55036;52.138;5.236;2023-06-24T16:13:46;30.90;36.90
68215;DHT22;55036;52.138;5.236;2023-06-24T16:16:13;30.80;39.10
68215;DHT22;55036;52.138;5.236;2023-06-24T16:18:40;30.80;39.90
68215;DHT22;55036;52.138;5.236;2023-06-24T16:21:07;30.80;40.20
68215;DHT22;55036;52.138;5.236;2023-06-24T16:23:34;30.70;40.60
68215;DHT22;55036;52.138;5.236;2023-06-24T16:26:01;30.70;41.90
68215;DHT22;55036;52.138;5.236;2023-06-24T16:28:28;30.70;41.20